createdAt,value
2023-04-28T00:01:22.438Z,12.50
2023-04-28T00:03:50.769Z,12.50
2023-04-28T00:06:19.171Z,12.50
2023-04-28T00:08:47.580Z,12.50
2023-04-28T00:11:18.429Z,12.50
2023-04-28T00:13:46.559Z,12.50
2023-04-28T00:16:15.088Z,12.50
2023-04-28T00:18:46.147Z,12.50
2023-04-28T00:21:15.174Z,12.40
2023-04-28T00:23:43.754Z,12.40
2023-04-28T00:26:12.489Z,12.30
2023-04-28T00:28:41.736Z,12.20
2023-04-28T00:31:12.886Z,12.10
2023-04-28T00:33:40.969Z,12.10
2023-04-28T00:36:09.766Z,12.10
2023-04-28T00:38:37.996Z,12.10
2023-04-28T00:41:06.503Z,12.00
2023-04-28T00:43:47.581Z,12.00
2023-04-28T00:46:23.048Z,11.90
2023-04-28T00:48:53.774Z,11.90
2023-04-28T00:51:23.033Z,11.80
2023-04-28T00:53:53.399Z,11.80
2023-04-28T00:56:21.627Z,11.70
2023-04-28T00:58:51.157Z,11.60
2023-04-28T01:01:21.358Z,11.60
2023-04-28T01:03:50.236Z,11.70
2023-04-28T01:06:19.613Z,11.70
2023-04-28T01:08:50.654Z,11.70
2023-04-28T01:11:18.699Z,11.60
2023-04-28T01:13:47.406Z,11.50
2023-04-28T01:16:18.583Z,11.50
2023-04-28T01:18:49.315Z,11.60
2023-04-28T01:21:29.008Z,11.50
2023-04-28T01:24:01.278Z,11.40
2023-04-28T01:26:31.193Z,11.50
2023-04-28T01:29:02.053Z,11.40
2023-04-28T01:31:30.937Z,11.50
2023-04-28T01:34:00.566Z,11.40
2023-04-28T01:36:29.082Z,11.40
2023-04-28T01:39:00.737Z,11.40
2023-04-28T01:41:28.905Z,11.40
2023-04-28T01:43:58.893Z,11.40
2023-04-28T01:46:27.270Z,11.40
2023-04-28T01:48:55.379Z,11.30
2023-04-28T01:51:23.336Z,11.30
2023-04-28T01:53:51.759Z,11.30
2023-04-28T01:56:21.147Z,11.30
2023-04-28T01:58:49.099Z,11.30
2023-04-28T02:01:17.069Z,11.30
2023-04-28T02:03:45.178Z,11.30
2023-04-28T02:06:13.521Z,11.20
2023-04-28T02:08:43.714Z,11.30
2023-04-28T02:11:11.604Z,11.30
2023-04-28T02:13:41.607Z,11.30
2023-04-28T02:16:09.684Z,11.30
2023-04-28T02:18:37.696Z,11.20
2023-04-28T02:21:12.313Z,11.30
2023-04-28T02:23:40.515Z,11.20
2023-04-28T02:26:09.806Z,11.20
2023-04-28T02:28:37.819Z,11.20
2023-04-28T02:31:08.746Z,11.20
2023-04-28T02:33:38.908Z,11.20
2023-04-28T02:36:08.299Z,11.20
2023-04-28T02:38:36.771Z,11.10
2023-04-28T02:41:06.624Z,11.10
2023-04-28T02:43:35.422Z,11.10
2023-04-28T02:46:05.150Z,11.10
2023-04-28T02:48:37.097Z,11.20
2023-04-28T02:51:05.446Z,11.20
2023-04-28T02:53:33.890Z,11.10
2023-04-28T02:56:04.811Z,11.20
2023-04-28T02:58:33.008Z,11.30
2023-04-28T03:01:04.294Z,11.20
2023-04-28T03:03:32.517Z,11.20
2023-04-28T03:06:02.398Z,11.20
2023-04-28T03:08:30.475Z,12.60
2023-04-28T03:11:01.752Z,11.10
2023-04-28T03:13:30.078Z,10.90
2023-04-28T03:15:59.116Z,11.00
2023-04-28T03:18:27.098Z,11.00
2023-04-28T03:20:55.298Z,11.00
2023-04-28T03:23:25.071Z,11.00
2023-04-28T03:25:53.017Z,11.10
2023-04-28T03:28:21.022Z,11.10
2023-04-28T03:30:49.292Z,11.10
2023-04-28T03:33:17.314Z,11.10
2023-04-28T03:35:45.374Z,11.10
2023-04-28T03:38:14.748Z,11.10
2023-04-28T03:40:44.267Z,11.10
2023-04-28T03:43:12.586Z,11.10
2023-04-28T03:45:41.370Z,11.10
2023-04-28T03:48:10.187Z,11.00
2023-04-28T03:50:38.376Z,11.10
2023-04-28T03:53:06.828Z,11.20
2023-04-28T03:55:35.114Z,11.10
2023-04-28T03:58:04.528Z,11.10
2023-04-28T04:00:32.650Z,11.20
2023-04-28T04:03:00.952Z,11.10
2023-04-28T04:05:29.502Z,11.20
2023-04-28T04:07:58.387Z,11.10
2023-04-28T04:10:28.888Z,11.20
2023-04-28T04:12:57.342Z,11.20
2023-04-28T04:15:29.050Z,11.20
2023-04-28T04:17:57.302Z,11.20
2023-04-28T04:20:27.348Z,11.20
2023-04-28T04:22:55.994Z,11.20
2023-04-28T04:25:24.025Z,11.20
2023-04-28T04:27:52.176Z,11.20
2023-04-28T04:30:20.182Z,11.20
2023-04-28T04:32:50.033Z,11.20
2023-04-28T04:35:18.412Z,11.30
2023-04-28T04:37:48.031Z,11.30
2023-04-28T04:40:16.231Z,11.30
2023-04-28T04:42:45.298Z,11.30
2023-04-28T04:45:13.588Z,11.30
2023-04-28T04:47:42.296Z,11.30
2023-04-28T04:50:13.000Z,11.30
2023-04-28T04:52:41.745Z,11.30
2023-04-28T04:55:13.148Z,11.30
2023-04-28T04:57:44.276Z,11.30
2023-04-28T05:00:15.410Z,11.40
2023-04-28T05:02:43.642Z,11.40
2023-04-28T05:05:21.331Z,11.40
2023-04-28T05:07:50.880Z,11.50
2023-04-28T05:10:19.162Z,11.40
2023-04-28T05:12:49.132Z,11.40
2023-04-28T05:15:17.677Z,11.40
2023-04-28T05:17:46.393Z,11.50
2023-04-28T05:20:17.300Z,11.40
2023-04-28T05:22:45.462Z,11.50
2023-04-28T05:27:43.208Z,11.40
2023-04-28T05:30:12.546Z,11.40
2023-04-28T05:32:40.867Z,11.40
2023-04-28T05:35:09.986Z,11.40
2023-04-28T05:37:39.909Z,11.40
2023-04-28T05:40:09.467Z,11.40
2023-04-28T05:42:37.843Z,11.40
2023-04-28T05:45:08.952Z,11.50
2023-04-28T05:47:36.998Z,11.40
2023-04-28T05:50:06.818Z,11.40
2023-04-28T05:52:35.082Z,11.40
2023-04-28T05:55:04.677Z,11.30
2023-04-28T05:57:38.951Z,11.40
2023-04-28T06:00:18.388Z,11.40
2023-04-28T06:02:46.537Z,11.40
2023-04-28T06:05:14.924Z,11.30
2023-04-28T06:07:46.216Z,11.30
2023-04-28T06:10:17.122Z,11.30
2023-04-28T06:12:45.481Z,11.20
2023-04-28T06:15:13.600Z,11.30
2023-04-28T06:17:43.732Z,11.20
2023-04-28T06:20:14.147Z,11.20
2023-04-28T06:22:43.737Z,11.20
2023-04-28T06:25:12.118Z,11.30
2023-04-28T06:27:41.841Z,11.30
2023-04-28T06:30:10.931Z,11.30
2023-04-28T06:32:39.163Z,11.30
2023-04-28T06:35:08.168Z,11.30
2023-04-28T06:37:37.196Z,11.30
2023-04-28T06:40:05.805Z,11.30
2023-04-28T06:42:35.543Z,11.30
2023-04-28T06:45:05.515Z,11.40
2023-04-28T06:47:36.296Z,11.30
2023-04-28T06:50:04.400Z,11.40
2023-04-28T06:52:39.337Z,11.40
2023-04-28T06:55:09.883Z,11.50
2023-04-28T06:57:38.983Z,11.50
2023-04-28T07:00:11.129Z,11.50
2023-04-28T07:02:39.195Z,11.50
2023-04-28T07:05:07.938Z,11.60
2023-04-28T07:07:36.569Z,11.60
2023-04-28T07:10:05.096Z,11.60
2023-04-28T07:12:33.062Z,11.70
2023-04-28T07:15:01.640Z,11.70
2023-04-28T07:17:31.188Z,11.90
2023-04-28T07:19:59.928Z,12.00
2023-04-28T07:22:28.509Z,12.30
2023-04-28T07:24:57.418Z,12.30
2023-04-28T07:27:27.087Z,12.40
2023-04-28T07:29:55.396Z,12.50
2023-04-28T07:32:24.215Z,12.50
2023-04-28T07:34:54.105Z,12.60
2023-04-28T07:37:22.693Z,12.70
2023-04-28T07:39:51.069Z,12.70
2023-04-28T07:42:19.668Z,12.50
2023-04-28T07:44:49.135Z,12.60
2023-04-28T07:47:17.374Z,12.60
2023-04-28T07:49:47.851Z,12.60
2023-04-28T07:52:17.572Z,12.50
2023-04-28T07:54:48.658Z,12.60
2023-04-28T07:57:16.969Z,12.60
2023-04-28T07:59:44.996Z,12.50
2023-04-28T08:02:15.053Z,12.60
2023-04-28T08:04:43.143Z,12.60
2023-04-28T08:07:11.722Z,12.70
2023-04-28T08:09:43.011Z,12.70
2023-04-28T08:12:11.298Z,12.80
2023-04-28T08:14:40.553Z,12.80
2023-04-28T08:17:09.420Z,12.80
2023-04-28T08:19:39.244Z,12.90
2023-04-28T08:22:07.262Z,12.90
2023-04-28T08:24:35.722Z,13.00
2023-04-28T08:27:05.665Z,13.10
2023-04-28T08:29:34.352Z,13.20
2023-04-28T08:32:02.456Z,13.40
2023-04-28T08:34:31.052Z,13.50
2023-04-28T08:36:59.478Z,13.50
2023-04-28T08:39:28.072Z,13.60
2023-04-28T08:41:56.502Z,13.70
2023-04-28T08:44:26.346Z,13.60
2023-04-28T08:46:59.234Z,14.00
2023-04-28T08:49:36.405Z,14.00
2023-04-28T08:52:08.128Z,14.40
2023-04-28T08:54:39.484Z,14.50
2023-04-28T08:57:10.337Z,14.50
2023-04-28T08:59:43.229Z,14.40
2023-04-28T09:02:11.939Z,14.30
2023-04-28T09:04:40.574Z,14.20
2023-04-28T09:07:13.027Z,14.20
2023-04-28T09:09:41.831Z,14.30
2023-04-28T09:12:10.375Z,14.40
2023-04-28T09:14:40.093Z,14.40
2023-04-28T09:17:14.041Z,14.40
2023-04-28T09:19:43.851Z,14.60
2023-04-28T09:22:24.857Z,14.60
2023-04-28T09:24:55.589Z,14.80
2023-04-28T09:27:28.712Z,14.90
2023-04-28T09:29:57.111Z,14.90
2023-04-28T09:32:28.162Z,15.10
2023-04-28T09:34:57.658Z,15.10
2023-04-28T09:37:27.207Z,15.30
2023-04-28T09:39:56.464Z,15.40
2023-04-28T09:42:35.241Z,15.30
2023-04-28T09:45:04.810Z,15.60
2023-04-28T09:47:36.123Z,15.60
2023-04-28T09:50:06.321Z,15.60
2023-04-28T09:52:36.120Z,15.80
2023-04-28T09:55:06.605Z,16.00
2023-04-28T09:57:37.744Z,15.70
2023-04-28T10:00:09.162Z,15.80
2023-04-28T10:02:44.226Z,15.70
2023-04-28T10:05:13.962Z,15.60
2023-04-28T10:07:42.585Z,15.60
2023-04-28T10:10:11.690Z,15.20
2023-04-28T10:12:39.859Z,15.20
2023-04-28T10:15:12.239Z,15.20
2023-04-28T10:17:42.049Z,15.00
2023-04-28T10:20:11.015Z,15.10
2023-04-28T10:22:58.376Z,15.00
2023-04-28T10:25:28.631Z,15.00
2023-04-28T10:27:57.262Z,15.00
2023-04-28T10:30:29.257Z,15.00
2023-04-28T10:33:30.025Z,15.10
2023-04-28T10:35:58.614Z,15.10
2023-04-28T10:38:28.372Z,15.20
2023-04-28T10:41:01.888Z,15.20
2023-04-28T10:43:40.402Z,15.30
2023-04-28T10:46:10.124Z,15.40
2023-04-28T10:48:59.244Z,15.60
2023-04-28T10:51:32.141Z,15.80
2023-04-28T10:54:30.312Z,16.10
2023-04-28T10:57:29.028Z,16.20
2023-04-28T11:00:30.353Z,16.30
2023-04-28T11:02:59.319Z,16.50
2023-04-28T11:05:32.010Z,16.50
2023-04-28T11:08:34.014Z,16.70
2023-04-28T11:11:19.302Z,16.90
2023-04-28T11:13:48.637Z,17.10
2023-04-28T11:16:21.855Z,17.10
2023-04-28T11:19:05.246Z,17.20
2023-04-28T11:21:35.245Z,17.00
2023-04-28T11:24:11.424Z,16.90
2023-04-28T11:26:39.778Z,16.80
2023-04-28T11:29:08.662Z,16.60
2023-04-28T11:31:38.340Z,16.50
2023-04-28T11:34:11.901Z,16.50
2023-04-28T11:36:42.058Z,16.10
2023-04-28T11:39:19.167Z,16.10
2023-04-28T11:41:47.152Z,16.20
2023-04-28T11:44:17.233Z,16.30
2023-04-28T11:46:51.233Z,16.40
2023-04-28T11:49:20.793Z,16.50
2023-04-28T11:51:50.431Z,16.50
2023-04-28T11:54:23.532Z,16.60
2023-04-28T11:56:52.056Z,16.60
2023-04-28T11:59:29.510Z,16.70
2023-04-28T12:01:59.835Z,17.00
2023-04-28T12:04:29.809Z,17.00
2023-04-28T12:07:04.516Z,17.20
2023-04-28T12:09:33.014Z,17.20
2023-04-28T12:12:03.463Z,17.50
2023-04-28T12:14:35.502Z,17.80
2023-04-28T12:17:04.110Z,17.90
2023-04-28T12:19:44.527Z,18.00
2023-04-28T12:22:17.579Z,18.10
2023-04-28T12:24:45.553Z,18.00
2023-04-28T12:27:18.548Z,17.90
2023-04-28T12:29:47.764Z,18.00
2023-04-28T12:32:16.343Z,17.80
2023-04-28T12:34:46.444Z,17.90
2023-04-28T12:37:16.003Z,18.10
2023-04-28T12:39:46.681Z,18.20
2023-04-28T12:42:15.257Z,18.30
2023-04-28T12:44:43.535Z,18.40
2023-04-28T12:47:12.300Z,18.30
2023-04-28T12:49:41.528Z,18.30
2023-04-28T12:52:09.992Z,18.50
2023-04-28T12:54:39.582Z,18.50
2023-04-28T12:57:07.788Z,18.80
2023-04-28T12:59:36.161Z,19.00
2023-04-28T13:02:04.147Z,19.60
2023-04-28T13:04:32.835Z,20.00
2023-04-28T13:07:01.632Z,20.10
2023-04-28T13:09:30.038Z,20.20
2023-04-28T13:11:59.435Z,20.10
2023-04-28T13:14:28.699Z,20.40
2023-04-28T13:16:57.663Z,21.00
2023-04-28T13:19:26.850Z,21.60
2023-04-28T13:21:54.946Z,21.50
2023-04-28T13:24:23.016Z,21.20
2023-04-28T13:26:54.906Z,21.10
2023-04-28T13:29:24.367Z,21.40
2023-04-28T13:31:54.510Z,21.40
2023-04-28T13:34:23.060Z,21.30
2023-04-28T13:36:54.103Z,21.40
2023-04-28T13:39:22.530Z,21.70
2023-04-28T13:41:50.903Z,22.00
2023-04-28T13:44:19.440Z,22.40
2023-04-28T13:46:49.526Z,22.60
2023-04-28T13:49:18.036Z,22.70
2023-04-28T13:51:46.854Z,23.10
2023-04-28T13:54:16.545Z,23.40
2023-04-28T13:56:44.933Z,23.10
2023-04-28T13:59:16.767Z,23.30
2023-04-28T14:01:46.315Z,23.20
2023-04-28T14:04:16.810Z,22.80
2023-04-28T14:06:45.295Z,22.50
2023-04-28T14:09:14.140Z,22.00
2023-04-28T14:11:42.092Z,21.50
2023-04-28T14:14:10.066Z,21.10
2023-04-28T14:16:38.482Z,20.90
2023-04-28T14:19:07.379Z,20.30
2023-04-28T14:21:39.156Z,20.20
2023-04-28T14:24:07.682Z,20.00
2023-04-28T14:26:36.241Z,19.80
2023-04-28T14:29:06.085Z,19.60
2023-04-28T14:31:34.228Z,19.40
2023-04-28T14:34:03.967Z,19.40
2023-04-28T14:36:33.006Z,19.20
2023-04-28T14:39:02.937Z,19.10
2023-04-28T14:41:30.937Z,18.90
2023-04-28T14:43:59.085Z,18.90
2023-04-28T14:46:27.601Z,19.00
2023-04-28T14:48:56.160Z,18.90
2023-04-28T14:51:25.997Z,18.80
2023-04-28T14:53:54.615Z,18.60
2023-04-28T14:56:27.714Z,18.40
2023-04-28T14:58:56.326Z,17.90
2023-04-28T15:01:24.610Z,17.70
2023-04-28T15:03:54.640Z,17.60
2023-04-28T15:06:22.811Z,17.40
2023-04-28T15:08:51.333Z,17.30
2023-04-28T15:11:19.903Z,17.00
2023-04-28T15:13:49.714Z,17.00
2023-04-28T15:16:17.996Z,17.00
2023-04-28T15:18:47.110Z,17.00
2023-04-28T15:21:16.541Z,17.00
2023-04-28T15:23:44.888Z,17.00
2023-04-28T15:26:13.640Z,17.00
2023-04-28T15:28:41.964Z,17.10
2023-04-28T15:31:11.683Z,17.30
2023-04-28T15:33:39.706Z,17.40
2023-04-28T15:36:08.710Z,17.60
2023-04-28T15:38:38.435Z,17.70
2023-04-28T15:41:06.895Z,17.70
2023-04-28T15:43:35.248Z,17.80
2023-04-28T15:46:04.324Z,17.80
2023-04-28T15:48:34.527Z,18.10
2023-04-28T15:51:02.811Z,18.10
2023-04-28T15:53:30.958Z,18.30
2023-04-28T15:55:59.882Z,18.40
2023-04-28T15:58:28.305Z,18.50
2023-04-28T16:00:57.347Z,18.40
2023-04-28T16:03:25.302Z,18.50
2023-04-28T16:05:56.707Z,18.80
2023-04-28T16:08:25.741Z,19.10
2023-04-28T16:10:54.547Z,19.60
2023-04-28T16:13:23.081Z,20.10
2023-04-28T16:15:57.128Z,21.20
2023-04-28T16:18:25.200Z,22.40
2023-04-28T16:20:53.783Z,23.00
2023-04-28T16:23:23.472Z,23.50
2023-04-28T16:25:51.878Z,23.90
2023-04-28T16:28:21.280Z,24.00
2023-04-28T16:30:49.618Z,24.30
2023-04-28T16:33:17.687Z,23.80
2023-04-28T16:35:45.743Z,24.10
2023-04-28T16:38:13.618Z,24.20
2023-04-28T16:40:43.308Z,24.20
2023-04-28T16:43:11.482Z,24.00
2023-04-28T16:45:40.096Z,24.80
2023-04-28T16:48:08.438Z,24.70
2023-04-28T16:50:37.727Z,24.10
2023-04-28T16:53:06.887Z,24.10
2023-04-28T16:55:37.637Z,23.90
2023-04-28T16:58:07.597Z,23.10
2023-04-28T17:00:36.306Z,22.60
2023-04-28T17:03:04.498Z,22.30
2023-04-28T17:05:33.613Z,22.10
2023-04-28T17:08:02.706Z,21.80
2023-04-28T17:10:31.799Z,21.50
2023-04-28T17:13:02.416Z,20.70
2023-04-28T17:15:32.279Z,20.60
2023-04-28T17:18:00.314Z,20.40
2023-04-28T17:20:28.297Z,20.30
2023-04-28T17:22:56.673Z,20.30
2023-04-28T17:25:28.313Z,20.30
2023-04-28T17:27:56.943Z,20.10
2023-04-28T17:30:26.006Z,20.10
2023-04-28T17:32:55.997Z,19.90
2023-04-28T17:35:24.434Z,19.90
2023-04-28T17:37:52.689Z,19.80
2023-04-28T17:40:24.170Z,19.70
2023-04-28T17:42:52.583Z,19.50
2023-04-28T17:45:23.104Z,19.50
2023-04-28T17:47:51.185Z,19.30
2023-04-28T17:50:26.700Z,19.20
2023-04-28T17:52:54.977Z,19.10
2023-04-28T17:55:23.466Z,19.10
2023-04-28T17:57:51.963Z,19.00
2023-04-28T18:00:20.565Z,18.90
2023-04-28T18:02:49.408Z,18.80
2023-04-28T18:05:18.170Z,18.70
2023-04-28T18:07:47.712Z,18.50
2023-04-28T18:10:16.837Z,18.40
2023-04-28T18:12:45.318Z,18.40
2023-04-28T18:15:13.556Z,18.20
2023-04-28T18:17:44.474Z,18.20
2023-04-28T18:20:13.317Z,18.10
2023-04-28T18:22:41.609Z,17.80
2023-04-28T18:25:13.298Z,17.70
2023-04-28T18:27:41.674Z,17.60
2023-04-28T18:30:11.074Z,17.50
2023-04-28T18:32:39.141Z,17.30
2023-04-28T18:35:07.562Z,17.20
2023-04-28T18:37:40.256Z,17.00
2023-04-28T18:40:11.272Z,17.00
2023-04-28T18:42:39.920Z,16.90
2023-04-28T18:47:46.126Z,16.60
2023-04-28T18:50:14.639Z,16.70
2023-04-28T18:52:42.731Z,16.60
2023-04-28T18:55:12.261Z,16.60
2023-04-28T18:57:40.552Z,16.60
2023-04-28T19:00:09.949Z,16.60
2023-04-28T19:02:38.016Z,16.60
2023-04-28T19:05:07.426Z,16.50
2023-04-28T19:07:38.190Z,16.50
2023-04-28T19:10:07.239Z,16.50
2023-04-28T19:12:37.021Z,16.50
2023-04-28T19:15:05.845Z,16.50
2023-04-28T19:17:34.571Z,16.50
2023-04-28T19:20:04.266Z,16.40
2023-04-28T19:22:34.822Z,16.50
2023-04-28T19:25:05.271Z,16.70
2023-04-28T19:27:34.806Z,16.60
2023-04-28T19:30:06.069Z,16.80
2023-04-28T19:32:34.532Z,16.50
2023-04-28T19:35:04.251Z,16.60
2023-04-28T19:37:34.419Z,16.50
2023-04-28T19:40:04.870Z,16.50
2023-04-28T19:42:34.865Z,16.50
2023-04-28T19:45:07.343Z,16.40
2023-04-28T19:47:36.997Z,16.50
2023-04-28T19:50:06.034Z,16.50
2023-04-28T19:52:34.215Z,16.50
2023-04-28T19:55:03.461Z,16.40
2023-04-28T19:57:31.649Z,16.50
2023-04-28T19:59:59.664Z,16.30
2023-04-28T20:02:29.231Z,16.10
2023-04-28T20:04:57.392Z,15.90
2023-04-28T20:07:25.615Z,15.90
2023-04-28T20:09:56.302Z,15.80
2023-04-28T20:12:27.584Z,15.70
2023-04-28T20:14:55.806Z,15.60
2023-04-28T20:17:24.021Z,15.60
2023-04-28T20:19:53.702Z,15.50
2023-04-28T20:22:24.109Z,15.50
2023-04-28T20:24:52.726Z,15.50
2023-04-28T20:27:22.555Z,15.50
2023-04-28T20:29:51.389Z,15.40
2023-04-28T20:32:20.285Z,15.30
2023-04-28T20:34:48.773Z,15.30
2023-04-28T20:37:20.833Z,15.30
2023-04-28T20:39:50.409Z,15.20
2023-04-28T20:42:18.768Z,15.20
2023-04-28T20:44:47.825Z,15.10
2023-04-28T20:47:16.265Z,15.10
2023-04-28T20:49:44.162Z,15.00
2023-04-28T20:52:12.229Z,15.00
2023-04-28T20:54:43.799Z,15.00
2023-04-28T20:57:13.958Z,15.00
2023-04-28T20:59:42.070Z,15.00
2023-04-28T21:02:10.381Z,14.90
2023-04-28T21:04:38.728Z,14.90
2023-04-28T21:07:07.466Z,15.00
2023-04-28T21:09:37.550Z,15.00
2023-04-28T21:12:07.485Z,15.00
2023-04-28T21:14:37.022Z,15.00
2023-04-28T21:17:05.471Z,15.10
2023-04-28T21:19:33.747Z,15.00
2023-04-28T21:22:02.053Z,15.00
2023-04-28T21:24:30.295Z,15.30
2023-04-28T21:26:59.561Z,15.00
2023-04-28T21:29:29.130Z,15.10
2023-04-28T21:31:59.784Z,15.10
2023-04-28T21:34:28.159Z,15.10
2023-04-28T21:36:57.816Z,15.20
2023-04-28T21:39:26.913Z,15.10
2023-04-28T21:44:23.143Z,15.40
2023-04-28T21:46:53.704Z,15.30
2023-04-28T21:49:23.190Z,15.40
2023-04-28T21:51:52.105Z,15.40
2023-04-28T21:54:22.617Z,15.40
2023-04-28T21:56:50.737Z,15.30
2023-04-28T21:59:18.953Z,15.30
2023-04-28T22:01:48.030Z,15.20
2023-04-28T22:04:18.380Z,15.10
2023-04-28T22:06:46.797Z,15.00
2023-04-28T22:09:15.324Z,14.90
2023-04-28T22:11:43.429Z,14.90
2023-04-28T22:14:15.260Z,14.80
2023-04-28T22:16:50.128Z,14.70
2023-04-28T22:19:20.717Z,14.60
2023-04-28T22:21:48.716Z,14.60
2023-04-28T22:24:18.328Z,14.50
2023-04-28T22:26:47.147Z,14.50
2023-04-28T22:29:15.368Z,14.40
2023-04-28T22:31:43.458Z,14.40
2023-04-28T22:34:11.530Z,14.30
2023-04-28T22:36:41.576Z,14.30
2023-04-28T22:39:09.906Z,14.30
2023-04-28T22:41:37.972Z,14.30
2023-04-28T22:44:08.523Z,14.20
2023-04-28T22:46:36.980Z,14.20
2023-04-28T22:49:05.282Z,14.20
2023-04-28T22:51:33.341Z,14.10
2023-04-28T22:54:02.833Z,14.10
2023-04-28T22:56:31.327Z,14.10
2023-04-28T22:58:59.361Z,14.10
2023-04-28T23:01:27.460Z,14.10
2023-04-28T23:03:56.579Z,14.10
2023-04-28T23:06:24.967Z,14.00
2023-04-28T23:08:53.487Z,14.00
2023-04-28T23:11:24.262Z,14.00
2023-04-28T23:13:52.711Z,13.90
2023-04-28T23:16:21.210Z,13.80
2023-04-28T23:18:49.452Z,13.80
2023-04-28T23:21:18.501Z,13.70
2023-04-28T23:23:47.075Z,13.70
2023-04-28T23:26:16.220Z,13.70
2023-04-28T23:28:46.693Z,13.60
2023-04-28T23:31:14.629Z,13.60
2023-04-28T23:33:42.771Z,13.50
2023-04-28T23:36:13.792Z,13.50
2023-04-28T23:38:43.093Z,13.30
2023-04-28T23:41:11.342Z,13.30
2023-04-28T23:43:41.417Z,13.30
2023-04-28T23:46:11.200Z,13.20
2023-04-28T23:48:40.608Z,13.10
2023-04-28T23:51:08.657Z,13.00
2023-04-28T23:53:36.645Z,13.00
2023-04-28T23:56:05.225Z,12.90
2023-04-28T23:58:33.628Z,12.80
